Time;durP1;ratioP1;P1;durP2;ratioP2;P2;SDS_P1;SDS_P2;PMS_P1;PMS_P2;Temp;Humidity;BMP_temperature;BMP_pressure;BME280_temperature;BME280_humidity;BME280_pressure;Samples;Min_cycle;Max_cycle;Signal;HPM_P1;HPM_P2
2023/03/08 00:00:14;;;;;;;;;;;6.00;81.40;;;4.78;65.04;99034.47;5029217;28;19933;-77
2023/03/08 00:02:41;;;;;;;;;;;6.00;81.30;;;4.76;65.03;99036.50;5030395;28;19929;-77
2023/03/08 00:05:10;;;;;;;;;;;6.00;81.30;;;4.77;64.99;99046.03;5030736;28;20023;-77
2023/03/08 00:07:37;;;;;;;;;;;6.00;81.20;;;4.76;65.24;99039.13;5029999;28;19925;-76
2023/03/08 00:10:05;;;;;;;;;;;6.00;81.20;;;4.75;64.55;99042.78;5029535;28;19935;-76
2023/03/08 00:12:32;;;;;;;;;;;6.00;81.30;;;4.77;65.27;99039.94;5021716;28;19933;-77
2023/03/08 00:14:59;;;;;;;;;;;6.00;81.30;;;4.78;64.94;99042.38;5027420;28;20208;-77
2023/03/08 00:17:26;;;;;;;;;;;6.00;81.20;;;4.79;65.06;99048.47;5023469;28;20333;-76
2023/03/08 00:19:53;;;;;;;;;;;6.00;81.10;;;4.76;65.01;99048.88;5026438;28;19929;-76
2023/03/08 00:22:21;;;;;;;;;;;6.00;81.20;;;4.73;65.43;99041.38;5023388;28;19929;-76
2023/03/08 00:24:48;;;;;;;;;;;6.00;81.30;;;4.76;64.85;99048.88;5021991;28;19925;-76
2023/03/08 00:27:15;;;;;;;;;;;6.00;81.20;;;4.72;65.30;99042.41;5022207;28;19929;-77
2023/03/08 00:29:42;;;;;;;;;;;6.00;81.30;;;4.71;65.53;99041.59;5028991;28;19933;-76
2023/03/08 00:32:08;;;;;;;;;;;6.00;81.20;;;4.69;65.63;99034.91;5025746;28;19929;-76
2023/03/08 00:34:35;;;;;;;;;;;6.00;81.40;;;4.67;65.89;99039.56;5014671;28;20393;-77
2023/03/08 00:37:02;;;;;;;;;;;6.00;81.50;;;4.71;65.34;99033.66;5011760;28;19936;-76
2023/03/08 00:39:31;;;;;;;;;;;6.00;81.40;;;4.65;65.73;99040.59;5010807;28;19929;-76
2023/03/08 00:41:58;;;;;;;;;;;6.00;81.40;;;4.68;65.91;99043.81;5020465;28;19961;-76
2023/03/08 00:44:25;;;;;;;;;;;6.00;81.60;;;4.70;65.66;99039.16;5009828;28;19929;-76
2023/03/08 00:46:52;;;;;;;;;;;6.00;81.60;;;4.73;65.72;99044.00;5002571;28;19929;-76
2023/03/08 00:49:19;;;;;;;;;;;6.00;81.60;;;4.69;65.98;99043.63;5012005;28;19929;-77
2023/03/08 00:51:46;;;;;;;;;;;6.00;81.60;;;4.71;65.35;99030.22;5011619;28;19925;-76
2023/03/08 00:54:13;;;;;;;;;;;6.00;81.40;;;4.69;65.85;99030.44;5025763;28;20032;-77
2023/03/08 00:56:41;;;;;;;;;;;6.00;81.60;;;4.66;66.10;99036.13;5011180;28;19933;-76
2023/03/08 00:59:08;;;;;;;;;;;6.00;81.70;;;4.71;65.81;99035.50;5020818;28;19925;-77
2023/03/08 01:01:35;;;;;;;;;;;6.00;81.80;;;4.71;65.87;99030.22;5029298;28;19929;-77
2023/03/08 01:04:02;;;;;;;;;;;6.00;81.80;;;4.71;65.55;99024.94;5009510;28;19940;-76
2023/03/08 01:06:29;;;;;;;;;;;6.00;81.90;;;4.69;65.85;99027.78;5003097;28;20672;-77
2023/03/08 01:08:56;;;;;;;;;;;6.00;81.80;;;4.69;66.00;99024.34;5008561;28;19925;-76
2023/03/08 01:11:25;;;;;;;;;;;5.90;82.00;;;4.72;65.83;99018.63;5028732;28;20305;-77
2023/03/08 01:13:54;;;;;;;;;;;5.90;82.10;;;4.76;65.74;99011.91;5029681;28;19940;-76
2023/03/08 01:16:22;;;;;;;;;;;6.00;82.00;;;4.76;65.63;99010.06;5008155;28;20397;-77
2023/03/08 01:18:51;;;;;;;;;;;5.90;82.00;;;4.79;65.33;99014.94;5027557;28;19932;-77
2023/03/08 01:21:20;;;;;;;;;;;5.90;82.00;;;4.76;65.69;99007.44;5003526;28;19933;-77
2023/03/08 01:23:47;;;;;;;;;;;5.90;82.20;;;4.72;65.53;99021.28;5029212;28;19929;-76
2023/03/08 01:26:15;;;;;;;;;;;5.90;82.30;;;4.70;65.88;99005.63;5010935;28;19925;-77
2023/03/08 01:28:43;;;;;;;;;;;5.90;82.20;;;4.75;65.95;99005.00;5010433;28;19964;-77
2023/03/08 01:31:13;;;;;;;;;;;6.00;82.00;;;4.74;65.81;99000.75;5009602;28;19936;-77
2023/03/08 01:33:41;;;;;;;;;;;6.00;81.90;;;4.69;66.14;98995.31;5028783;28;19979;-77
2023/03/08 01:36:10;;;;;;;;;;;6.00;82.20;;;4.68;66.06;98998.94;5006423;28;19930;-76
2023/03/08 01:38:38;;;;;;;;;;;5.90;82.40;;;4.68;66.22;98988.38;5011346;28;20385;-77
2023/03/08 01:41:06;;;;;;;;;;;6.00;82.40;;;4.67;66.03;98992.03;5011534;28;20143;-76
2023/03/08 01:43:35;;;;;;;;;;;6.00;82.20;;;4.65;66.12;98984.34;5010491;28;20016;-76
2023/03/08 01:46:06;;;;;;;;;;;6.00;82.20;;;4.64;66.28;98988.81;5008801;28;19927;-77
2023/03/08 01:48:39;;;;;;;;;;;6.00;82.30;;;4.64;66.34;98982.72;5027190;28;19934;-76
2023/03/08 01:51:12;;;;;;;;;;;5.90;82.50;;;4.70;66.51;98975.78;5003548;28;19929;-77
2023/03/08 01:53:40;;;;;;;;;;;5.90;82.30;;;4.76;66.05;98975.75;5011067;28;20024;-77
2023/03/08 01:56:09;;;;;;;;;;;6.00;82.20;;;4.79;65.97;98974.53;5007983;28;19925;-76
2023/03/08 01:58:38;;;;;;;;;;;6.00;82.00;;;4.73;65.97;98965.59;5022031;28;19933;-77
2023/03/08 02:01:05;;;;;;;;;;;6.00;82.00;;;4.74;65.76;98967.25;5029280;28;20020;-77
2023/03/08 02:03:32;;;;;;;;;;;6.00;82.10;;;4.71;65.96;98956.28;5011328;28;19948;-77
2023/03/08 02:06:02;;;;;;;;;;;6.10;82.20;;;4.68;66.10;98951.41;5008727;28;19929;-77
2023/03/08 02:08:31;;;;;;;;;;;6.00;82.20;;;4.70;66.51;98949.38;5032307;28;20467;-76
2023/03/08 02:10:59;;;;;;;;;;;6.00;82.20;;;4.69;66.21;98945.13;5001794;28;20393;-76
2023/03/08 02:13:26;;;;;;;;;;;6.00;82.10;;;4.68;66.33;98940.84;5028511;28;19929;-77
2023/03/08 02:15:55;;;;;;;;;;;6.00;82.00;;;4.70;65.83;98937.00;5011331;28;19933;-77
2023/03/08 02:18:23;;;;;;;;;;;6.00;82.00;;;4.69;65.93;98930.09;5003626;28;20052;-76
2023/03/08 02:20:50;;;;;;;;;;;5.90;82.10;;;4.70;66.18;98929.06;5008591;28;20460;-77
2023/03/08 02:23:20;;;;;;;;;;;6.00;82.10;;;4.70;66.02;98920.34;5013262;28;19931;-76
2023/03/08 02:25:51;;;;;;;;;;;6.00;82.00;;;4.70;65.71;98909.78;5028483;28;20308;-77
2023/03/08 02:28:19;;;;;;;;;;;5.90;82.10;;;4.71;65.69;98911.38;5029565;28;19936;-76
2023/03/08 02:30:47;;;;;;;;;;;6.00;82.10;;;4.71;65.92;98914.84;5031394;28;19936;-77
2023/03/08 02:33:15;;;;;;;;;;;6.00;82.00;;;4.71;65.84;98914.84;5013347;28;19932;-76
2023/03/08 02:35:43;;;;;;;;;;;6.00;82.00;;;4.69;66.14;98916.09;5028602;28;19925;-77
2023/03/08 02:38:13;;;;;;;;;;;5.90;82.00;;;4.68;66.15;98909.97;5010846;28;19932;-76
2023/03/08 02:40:41;;;;;;;;;;;6.00;82.00;;;4.65;66.13;98920.97;5031975;28;19945;-76
2023/03/08 02:43:10;;;;;;;;;;;6.00;82.10;;;4.65;66.37;98920.97;5013372;28;19952;-77
2023/03/08 02:45:40;;;;;;;;;;;5.90;82.20;;;4.65;65.81;98919.13;5023763;28;19925;-76
2023/03/08 02:48:09;;;;;;;;;;;5.90;82.40;;;4.71;65.79;98924.59;5011878;28;20408;-77
2023/03/08 02:50:36;;;;;;;;;;;5.90;82.40;;;4.72;65.70;98915.63;5012474;28;19949;-77
2023/03/08 02:53:03;;;;;;;;;;;5.90;82.10;;;4.67;65.84;98915.47;5031004;28;19929;-76
2023/03/08 02:55:34;;;;;;;;;;;5.80;82.00;;;4.71;66.20;98901.63;5013986;28;20008;-76
2023/03/08 02:58:03;;;;;;;;;;;5.90;82.10;;;4.72;65.38;98899.78;5013503;28;19933;-76
2023/03/08 03:00:30;;;;;;;;;;;5.90;82.00;;;4.71;65.61;98900.81;5014151;28;19925;-77
2023/03/08 03:02:58;;;;;;;;;;;5.90;82.00;;;4.67;65.80;98905.72;5005573;28;20425;-77
2023/03/08 03:05:27;;;;;;;;;;;5.90;82.10;;;4.66;65.61;98893.53;5013514;28;19943;-77
2023/03/08 03:07:57;;;;;;;;;;;5.90;82.20;;;4.62;66.22;98890.50;5012938;28;19940;-77
2023/03/08 03:10:25;;;;;;;;;;;5.90;82.20;;;4.61;65.80;98891.53;5013734;28;19929;-77
2023/03/08 03:12:52;;;;;;;;;;;5.90;82.20;;;4.61;65.78;98899.44;5025278;28;20028;-76
2023/03/08 03:15:23;;;;;;;;;;;5.80;82.20;;;4.59;66.02;98892.78;5011400;28;19925;-76
2023/03/08 03:17:54;;;;;;;;;;;5.90;82.50;;;4.62;65.88;98901.06;5011279;28;20324;-77
2023/03/08 03:20:21;;;;;;;;;;;5.90;82.20;;;4.60;65.90;98897.84;5031675;28;19932;-77
2023/03/08 03:22:48;;;;;;;;;;;5.90;82.40;;;4.62;65.71;98895.78;5012271;28;19925;-76
2023/03/08 03:25:17;;;;;;;;;;;5.90;82.50;;;4.63;65.85;98889.47;5005857;28;20390;-77
2023/03/08 03:27:46;;;;;;;;;;;5.90;82.30;;;4.65;65.74;98876.88;5012270;28;19925;-77
2023/03/08 03:30:13;;;;;;;;;;;5.90;82.20;;;4.67;65.53;98883.78;5003804;28;19926;-77
2023/03/08 03:32:42;;;;;;;;;;;5.90;82.10;;;4.72;65.48;98876.03;5012256;28;19964;-76
2023/03/08 03:35:10;;;;;;;;;;;5.90;82.00;;;4.71;65.22;98879.69;5004579;28;19925;-77
2023/03/08 03:37:37;;;;;;;;;;;5.90;82.00;;;4.69;65.21;98871.19;5004560;28;19929;-77
2023/03/08 03:40:06;;;;;;;;;;;5.90;81.90;;;4.63;65.38;98880.75;5013287;28;19933;-76
2023/03/08 03:42:33;;;;;;;;;;;5.90;82.10;;;4.59;65.71;98871.66;5031185;28;19925;-76
2023/03/08 03:45:09;;;;;;;;;;;5.80;82.00;;;4.60;65.62;98862.72;5009811;28;19944;-76
2023/03/08 03:47:36;;;;;;;;;;;5.90;82.00;;;4.57;66.00;98856.00;5011724;28;20237;-77
2023/03/08 03:50:09;;;;;;;;;;;5.90;82.10;;;4.54;66.17;98858.25;5013208;28;20031;-76
2023/03/08 03:52:50;;;;;;;;;;;5.90;82.30;;;4.52;66.15;98853.19;5012731;28;19929;-77
2023/03/08 03:55:17;;;;;;;;;;;5.90;82.20;;;4.54;66.47;98843.25;5013051;28;20061;-77
2023/03/08 03:57:45;;;;;;;;;;;5.90;82.10;;;4.55;65.77;98865.97;5011938;28;19937;-77
2023/03/08 04:00:17;;;;;;;;;;;5.90;82.00;;;4.53;66.50;98856.63;5012288;28;19925;-77
2023/03/08 04:02:51;;;;;;;;;;;5.90;82.20;;;4.53;66.02;98852.16;5012124;28;19925;-77
2023/03/08 04:05:21;;;;;;;;;;;5.90;82.20;;;4.52;66.00;98849.75;5012730;28;19960;-77
2023/03/08 04:07:51;;;;;;;;;;;5.90;82.30;;;4.55;65.83;98834.31;5039280;23;19940;-75
2023/03/08 04:10:20;;;;;;;;;;;5.80;82.00;;;4.53;66.23;98831.06;5048204;28;20423;-75
2023/03/08 04:12:48;;;;;;;;;;;5.80;82.20;;;4.50;66.25;98822.78;5043280;28;20019;-75
2023/03/08 04:15:17;;;;;;;;;;;5.80;82.20;;;4.47;66.40;98813.44;5033912;28;20739;-75
2023/03/08 04:17:44;;;;;;;;;;;5.80;82.30;;;4.44;66.92;98816.50;5033169;28;19975;-75
2023/03/08 04:20:13;;;;;;;;;;;5.80;82.40;;;4.48;66.79;98825.59;5012704;28;19936;-75
2023/03/08 04:22:45;;;;;;;;;;;5.80;82.30;;;4.44;67.02;98813.88;5029179;28;19932;-75
2023/03/08 04:25:18;;;;;;;;;;;5.90;82.50;;;4.44;66.59;98813.03;5019806;28;19976;-75
2023/03/08 04:27:52;;;;;;;;;;;5.90;82.40;;;4.44;66.79;98813.88;5012117;28;20503;-75
2023/03/08 04:30:21;;;;;;;;;;;5.80;82.10;;;4.45;66.90;98804.94;5011365;28;19933;-75
2023/03/08 04:32:48;;;;;;;;;;;5.90;82.20;;;4.48;66.67;98799.19;5010381;28;19956;-75
2023/03/08 04:35:15;;;;;;;;;;;5.90;82.00;;;4.45;66.48;98797.00;5023489;28;19929;-75
2023/03/08 04:37:45;;;;;;;;;;;5.90;82.20;;;4.47;66.86;98796.78;5030854;28;19928;-75
2023/03/08 04:40:14;;;;;;;;;;;5.90;82.20;;;4.49;66.39;98803.47;5014603;28;19924;-75
2023/03/08 04:42:48;;;;;;;;;;;5.90;82.20;;;4.54;66.72;98798.38;5013543;28;19956;-75
2023/03/08 04:45:19;;;;;;;;;;;5.90;82.10;;;4.55;66.40;98792.06;5020616;28;20267;-75
2023/03/08 04:47:46;;;;;;;;;;;5.90;82.20;;;4.56;66.27;98793.69;5010286;28;19929;-74
2023/03/08 04:50:14;;;;;;;;;;;5.90;82.20;;;4.57;66.19;98786.56;5025829;28;20296;-75
2023/03/08 04:52:41;;;;;;;;;;;5.90;82.20;;;4.59;66.08;98779.25;5023335;28;19936;-75
2023/03/08 04:55:10;;;;;;;;;;;5.90;82.20;;;4.54;66.74;98777.25;5023376;28;20002;-75
2023/03/08 04:57:37;;;;;;;;;;;5.90;82.30;;;4.56;66.56;98769.13;5022624;28;19939;-75
2023/03/08 05:00:05;;;;;;;;;;;5.90;82.20;;;4.58;65.95;98765.22;5021247;28;19925;-74
2023/03/08 05:02:36;;;;;;;;;;;5.90;82.20;;;4.56;66.42;98756.72;5018223;28;19929;-75
2023/03/08 05:05:04;;;;;;;;;;;5.90;82.20;;;4.55;66.22;98757.75;5022374;28;19936;-75
2023/03/08 05:07:31;;;;;;;;;;;5.90;82.20;;;4.56;66.46;98759.34;5018527;28;19975;-75
2023/03/08 05:10:01;;;;;;;;;;;5.90;82.20;;;4.53;66.49;98754.50;5004261;28;19936;-76
2023/03/08 05:12:29;;;;;;;;;;;5.90;82.20;;;4.57;66.54;98750.41;5012112;28;20027;-79
2023/03/08 05:14:59;;;;;;;;;;;5.90;82.20;;;4.58;66.33;98751.22;5023603;28;19929;-82
2023/03/08 05:17:27;;;;;;;;;;;5.90;82.00;;;4.58;65.97;98746.75;5023632;28;19926;-76
2023/03/08 05:19:55;;;;;;;;;;;5.90;82.00;;;4.61;66.22;98751.59;5010222;28;19931;-77
2023/03/08 05:22:29;;;;;;;;;;;5.90;82.00;;;4.61;66.19;98735.75;5025919;28;19973;-76
2023/03/08 05:24:57;;;;;;;;;;;5.90;82.00;;;4.64;65.99;98737.97;5029773;28;20585;-76
2023/03/08 05:27:26;;;;;;;;;;;5.90;81.90;;;4.61;65.98;98730.47;5010948;28;19936;-76
2023/03/08 05:29:54;;;;;;;;;;;5.90;82.00;;;4.61;66.27;98737.59;5010521;28;20035;-76
2023/03/08 05:32:22;;;;;;;;;;;5.90;82.00;;;4.59;65.98;98724.63;5021288;28;19956;-75
2023/03/08 05:34:52;;;;;;;;;;;6.00;82.00;;;4.53;66.43;98725.47;5020528;28;19945;-76
2023/03/08 05:37:25;;;;;;;;;;;5.90;82.10;;;4.55;66.06;98723.44;5019088;28;19928;-77
2023/03/08 05:39:53;;;;;;;;;;;5.90;82.00;;;4.52;66.47;98715.13;5014655;28;19929;-76
2023/03/08 05:42:22;;;;;;;;;;;5.90;82.10;;;4.52;66.44;98715.13;5013308;28;20401;-76
2023/03/08 05:44:49;;;;;;;;;;;5.90;82.20;;;4.52;66.29;98707.22;5008445;28;19925;-76
2023/03/08 05:47:22;;;;;;;;;;;5.90;82.10;;;4.54;66.46;98707.78;5017425;28;20386;-76
2023/03/08 05:49:50;;;;;;;;;;;5.90;82.10;;;4.54;66.42;98702.50;5011420;28;20481;-76
2023/03/08 05:52:18;;;;;;;;;;;5.90;82.20;;;4.52;66.57;98694.81;5008479;28;20142;-76
2023/03/08 05:54:45;;;;;;;;;;;5.90;82.20;;;4.55;66.19;98691.75;5033130;28;19925;-76
2023/03/08 05:57:16;;;;;;;;;;;5.90;82.20;;;4.57;66.16;98678.31;5022114;28;19968;-76
2023/03/08 05:59:44;;;;;;;;;;;5.80;82.20;;;4.55;65.89;98677.75;5015653;28;19939;-76
2023/03/08 06:02:13;;;;;;;;;;;5.80;82.10;;;4.54;65.80;98676.09;5013377;28;19929;-76
2023/03/08 06:04:49;;;;;;;;;;;5.80;81.80;;;4.52;65.96;98667.59;5013410;28;20023;-76
2023/03/08 06:07:19;;;;;;;;;;;5.80;81.80;;;4.52;65.55;98665.78;5021952;28;19933;-76
2023/03/08 06:09:51;;;;;;;;;;;5.80;81.80;;;4.50;65.48;98659.13;5015233;28;19929;-76
2023/03/08 06:12:18;;;;;;;;;;;5.80;81.80;;;4.48;65.99;98656.66;5038633;28;19934;-76
2023/03/08 06:14:49;;;;;;;;;;;5.80;82.00;;;4.45;65.54;98661.59;5018941;28;20351;-76
2023/03/08 06:17:18;;;;;;;;;;;5.70;82.00;;;4.43;65.69;98667.06;5021566;28;20781;-76
2023/03/08 06:19:50;;;;;;;;;;;5.70;82.00;;;4.45;66.03;98658.97;5013388;28;19939;-76
2023/03/08 06:22:18;;;;;;;;;;;5.70;82.00;;;4.44;66.18;98655.50;5019336;28;20602;-76
2023/03/08 06:24:48;;;;;;;;;;;5.70;82.20;;;4.46;65.79;98648.16;5005814;28;19925;-76
2023/03/08 06:27:17;;;;;;;;;;;5.70;82.10;;;4.51;65.43;98642.25;4994521;28;19926;-76
2023/03/08 06:29:47;;;;;;;;;;;5.70;81.90;;;4.44;65.23;98637.03;5021112;28;19925;-76
2023/03/08 06:32:14;;;;;;;;;;;5.70;81.90;;;4.44;65.45;98634.41;5018308;28;19929;-76
2023/03/08 06:34:41;;;;;;;;;;;5.70;82.00;;;4.41;65.62;98632.19;5020341;28;19929;-76
2023/03/08 06:37:10;;;;;;;;;;;5.70;82.00;;;4.40;65.37;98617.38;5014140;28;19932;-76
2023/03/08 06:39:37;;;;;;;;;;;5.60;81.60;;;4.38;65.43;98616.75;5021988;28;19929;-76
2023/03/08 06:42:06;;;;;;;;;;;5.60;81.90;;;4.41;65.63;98612.91;5030331;28;19978;-76
2023/03/08 06:44:34;;;;;;;;;;;5.90;82.00;;;4.38;65.54;98608.84;5032923;28;20016;-76
2023/03/08 06:47:01;;;;;;;;;;;5.60;81.70;;;4.35;65.25;98598.75;5015938;28;19929;-76
2023/03/08 06:49:28;;;;;;;;;;;5.60;81.70;;;4.36;65.25;98601.16;5021777;28;19929;-76
2023/03/08 06:51:55;;;;;;;;;;;5.50;81.90;;;4.35;65.22;98593.47;5045327;28;20282;-76
2023/03/08 06:54:24;;;;;;;;;;;5.50;82.00;;;4.32;65.35;98593.88;5020741;28;19929;-76
2023/03/08 06:56:51;;;;;;;;;;;5.60;82.00;;;4.32;66.01;98596.53;5013174;28;19981;-76
2023/03/08 06:59:18;;;;;;;;;;;5.50;82.10;;;4.33;65.65;98591.03;5026581;28;19929;-76
2023/03/08 07:01:45;;;;;;;;;;;5.50;82.10;;;4.32;65.80;98591.25;5018860;28;19937;-76
2023/03/08 07:04:12;;;;;;;;;;;5.60;82.20;;;4.31;65.87;98593.09;5021303;28;19928;-76
2023/03/08 07:06:39;;;;;;;;;;;5.50;82.20;;;4.31;65.44;98587.00;5024351;28;19933;-77
2023/03/08 07:09:06;;;;;;;;;;;5.50;82.20;;;4.34;65.82;98584.75;5029156;28;20370;-76
2023/03/08 07:11:34;;;;;;;;;;;5.50;82.20;;;4.34;65.33;98589.19;5028220;28;19936;-76
2023/03/08 07:14:01;;;;;;;;;;;5.50;82.10;;;4.35;65.43;98588.19;5024700;28;19932;-76
2023/03/08 07:16:28;;;;;;;;;;;5.50;82.20;;;4.32;65.45;98580.69;5018473;28;20293;-76
2023/03/08 07:18:55;;;;;;;;;;;5.50;82.20;;;4.30;65.24;98575.66;5025470;28;19930;-76
2023/03/08 07:21:23;;;;;;;;;;;5.40;82.10;;;4.22;65.23;98575.13;5026088;28;20023;-76
2023/03/08 07:23:52;;;;;;;;;;;5.30;82.00;;;4.14;65.63;98574.34;5019648;28;19933;-76
2023/03/08 07:26:19;;;;;;;;;;;5.30;82.10;;;4.05;65.65;98569.56;5022525;28;20531;-76
2023/03/08 07:28:50;;;;;;;;;;;5.30;82.20;;;4.10;65.58;98564.47;5023552;28;19925;-76
2023/03/08 07:31:17;;;;;;;;;;;5.30;82.40;;;4.14;65.64;98557.72;5020485;28;19964;-76
2023/03/08 07:33:44;;;;;;;;;;;5.30;82.50;;;4.17;65.37;98561.75;5021186;28;19929;-76
2023/03/08 07:36:11;;;;;;;;;;;5.30;82.30;;;4.12;65.40;98555.31;5017863;28;20016;-76
2023/03/08 07:38:38;;;;;;;;;;;5.30;82.40;;;4.11;65.72;98558.16;5021080;28;19925;-76
2023/03/08 07:41:05;;;;;;;;;;;5.30;82.50;;;4.13;65.73;98569.28;5014398;28;19929;-76
2023/03/08 07:43:32;;;;;;;;;;;5.30;82.50;;;4.09;65.86;98568.09;4997517;28;19929;-76
2023/03/08 07:46:06;;;;;;;;;;;5.30;82.50;;;4.00;66.05;98569.41;5022712;28;19986;-76
2023/03/08 07:48:33;;;;;;;;;;;5.20;82.40;;;3.99;66.20;98568.59;5024524;28;20020;-76
2023/03/08 07:51:02;;;;;;;;;;;5.20;82.70;;;4.04;66.22;98566.13;5022402;28;20035;-76
2023/03/08 07:53:30;;;;;;;;;;;5.20;82.90;;;4.03;65.85;98564.50;5020235;28;20465;-76
2023/03/08 07:55:58;;;;;;;;;;;5.20;82.70;;;4.02;65.81;98551.53;5005735;28;19932;-76
2023/03/08 07:58:25;;;;;;;;;;;5.10;82.70;;;4.02;65.56;98559.47;5016240;28;19929;-76
2023/03/08 08:00:53;;;;;;;;;;;5.10;82.90;;;4.04;65.73;98550.28;5019329;28;19936;-76
2023/03/08 08:03:21;;;;;;;;;;;5.10;83.00;;;4.04;65.79;98537.09;5023552;28;19947;-76
2023/03/08 08:05:48;;;;;;;;;;;5.10;83.00;;;4.03;65.72;98535.50;5022616;28;20392;-76
2023/03/08 08:08:15;;;;;;;;;;;5.10;82.90;;;3.94;65.62;98539.44;5018597;28;19929;-76
2023/03/08 08:10:42;;;;;;;;;;;5.10;82.70;;;3.85;66.39;98535.44;5018451;28;19925;-76
2023/03/08 08:13:09;;;;;;;;;;;5.00;83.00;;;3.89;66.64;98523.44;5000597;28;20023;-76
2023/03/08 08:15:36;;;;;;;;;;;5.00;83.10;;;3.93;66.29;98511.44;5006084;28;19925;-76
2023/03/08 08:18:04;;;;;;;;;;;5.10;83.10;;;3.98;65.91;98516.06;5004180;28;19983;-77
2023/03/08 08:20:32;;;;;;;;;;;5.10;83.10;;;3.95;66.09;98512.03;5024323;28;20002;-81
2023/03/08 08:22:59;;;;;;;;;;;5.10;82.90;;;3.92;66.03;98509.03;5021695;28;19936;-79
2023/03/08 08:25:26;;;;;;;;;;;5.10;82.80;;;3.92;66.11;98504.56;5030844;28;19929;-79
2023/03/08 08:27:53;;;;;;;;;;;5.10;82.90;;;3.93;66.00;98500.91;5028005;28;20423;-80
2023/03/08 08:30:20;;;;;;;;;;;5.10;82.90;;;3.88;65.58;98498.09;5019418;28;19929;-79
2023/03/08 08:32:47;;;;;;;;;;;5.00;82.60;;;3.84;65.83;98491.66;5022422;28;19933;-79
2023/03/08 08:35:14;;;;;;;;;;;4.90;82.90;;;3.77;65.96;98480.38;5022723;28;20413;-79
2023/03/08 08:37:42;;;;;;;;;;;4.90;83.20;;;3.74;65.84;98472.88;5017798;28;20443;-79
2023/03/08 08:40:11;;;;;;;;;;;4.80;83.10;;;3.61;66.45;98477.25;5022860;28;19925;-79
2023/03/08 08:42:38;;;;;;;;;;;4.80;83.20;;;3.59;66.69;98471.38;5026427;28;19925;-79
2023/03/08 08:45:06;;;;;;;;;;;4.80;83.50;;;3.60;66.66;98472.19;5030312;28;20019;-79
2023/03/08 08:47:33;;;;;;;;;;;4.80;83.50;;;3.64;67.03;98459.38;5029084;28;19952;-80
2023/03/08 08:50:00;;;;;;;;;;;4.80;83.50;;;3.61;66.79;98455.34;5028664;28;19964;-79
2023/03/08 08:52:26;;;;;;;;;;;4.80;83.80;;;3.64;66.85;98451.47;5040176;28;19924;-79
2023/03/08 08:54:55;;;;;;;;;;;4.80;83.90;;;3.60;67.47;98451.91;5029583;28;19933;-79
2023/03/08 08:57:22;;;;;;;;;;;4.80;83.90;;;3.67;67.47;98453.69;5030771;28;20515;-79
2023/03/08 08:59:49;;;;;;;;;;;4.80;83.80;;;3.68;67.34;98439.47;5030294;28;19929;-79
2023/03/08 09:02:16;;;;;;;;;;;4.90;84.00;;;3.60;67.02;98438.72;5028678;28;19935;-79
2023/03/08 09:04:43;;;;;;;;;;;4.80;83.70;;;3.60;67.06;98436.09;5032713;28;19979;-79
2023/03/08 09:07:10;;;;;;;;;;;4.90;83.90;;;3.63;67.20;98440.13;5032695;28;19925;-79
2023/03/08 09:09:37;;;;;;;;;;;4.70;84.20;;;3.67;67.12;98443.16;5037319;28;19925;-78
2023/03/08 09:12:06;;;;;;;;;;;4.80;84.30;;;3.70;67.28;98424.25;5029543;28;20404;-79
2023/03/08 09:14:34;;;;;;;;;;;4.80;84.30;;;3.72;67.14;98415.13;5030579;28;19936;-79
2023/03/08 09:17:01;;;;;;;;;;;4.80;84.30;;;3.67;67.11;98411.53;5015548;28;20552;-79
2023/03/08 09:19:28;;;;;;;;;;;4.80;84.20;;;3.68;67.12;98415.75;5035750;28;19925;-79
2023/03/08 09:21:55;;;;;;;;;;;4.80;84.20;;;3.71;67.23;98418.78;5032769;28;19967;-80
2023/03/08 09:24:22;;;;;;;;;;;4.80;84.50;;;3.74;67.13;98417.53;5025292;28;19929;-79
2023/03/08 09:26:49;;;;;;;;;;;4.80;84.30;;;3.67;67.13;98420.22;5030107;28;20392;-79
2023/03/08 09:29:17;;;;;;;;;;;4.80;84.30;;;3.51;68.33;98412.84;5020142;28;20304;-79
2023/03/08 09:31:45;;;;;;;;;;;4.80;84.50;;;3.63;68.09;98411.13;5024106;28;20016;-79
2023/03/08 09:34:13;;;;;;;;;;;4.80;84.50;;;3.57;67.86;98402.28;5025611;28;19929;-79
2023/03/08 09:36:41;;;;;;;;;;;4.80;84.60;;;3.48;68.08;98406.22;5031621;28;20019;-79
2023/03/08 09:39:09;;;;;;;;;;;4.70;84.70;;;3.56;68.18;98411.22;5036388;28;20286;-79
2023/03/08 09:41:46;;;;;;;;;;;4.70;84.90;;;3.60;68.20;98407.09;5047788;28;20031;-79
2023/03/08 09:44:44;;;;;;;;;;;4.80;85.00;;;3.57;68.34;98407.53;5033710;28;19925;-79
2023/03/08 09:47:17;;;;;;;;;;;4.80;84.90;;;3.51;68.34;98399.69;5032359;28;19933;-79
2023/03/08 09:49:47;;;;;;;;;;;4.70;85.00;;;3.58;68.33;98393.34;5027041;28;20393;-79
2023/03/08 09:52:17;;;;;;;;;;;4.80;85.10;;;3.63;68.01;98390.06;5019593;28;20473;-79
2023/03/08 09:54:45;;;;;;;;;;;4.80;84.90;;;3.68;68.23;98387.56;5022905;28;19979;-79
2023/03/08 09:57:16;;;;;;;;;;;4.80;84.90;;;3.64;68.14;98382.94;5003245;28;20278;-79
2023/03/08 09:59:55;;;;;;;;;;;4.80;84.80;;;3.60;67.77;98386.00;5027320;28;19925;-80
2023/03/08 10:02:41;;;;;;;;;;;4.70;84.70;;;3.60;67.85;98386.00;5037215;28;20300;-79
2023/03/08 10:05:15;;;;;;;;;;;4.70;85.00;;;3.54;68.07;98380.81;5028049;28;20455;-79
2023/03/08 10:07:49;;;;;;;;;;;4.70;85.20;;;3.61;68.11;98381.53;5039891;22;19941;-82
2023/03/08 10:10:23;;;;;;;;;;;4.70;85.40;;;3.47;68.33;98378.25;5026362;28;19935;-82
2023/03/08 10:13:06;;;;;;;;;;;4.70;85.00;;;3.51;68.55;98379.41;5024511;28;20012;-81
2023/03/08 10:15:40;;;;;;;;;;;4.70;85.50;;;3.59;68.32;98379.13;5029367;28;19924;-82
2023/03/08 10:18:13;;;;;;;;;;;4.70;85.30;;;3.60;68.46;98382.56;5012575;28;20023;-82
2023/03/08 10:20:41;;;;;;;;;;;4.70;85.30;;;3.64;68.35;98370.56;4990848;28;19932;-82
2023/03/08 10:23:14;;;;;;;;;;;4.80;85.30;;;3.65;68.65;98376.66;5003574;28;19926;-82
2023/03/08 10:25:41;;;;;;;;;;;4.70;85.30;;;3.67;68.29;98367.50;5008420;28;20015;-82
2023/03/08 10:28:12;;;;;;;;;;;4.80;85.30;;;3.65;68.31;98366.91;5022601;28;19925;-82
2023/03/08 10:30:45;;;;;;;;;;;4.70;85.30;;;3.65;68.34;98360.84;5008139;28;20019;-82
2023/03/08 10:33:13;;;;;;;;;;;4.80;85.40;;;3.60;68.51;98353.56;5008029;28;19934;-82
2023/03/08 10:35:54;;;;;;;;;;;4.70;85.40;;;3.60;68.72;98343.84;5013673;28;19952;-82
2023/03/08 10:38:22;;;;;;;;;;;4.80;85.50;;;3.64;68.63;98331.03;4994157;28;19925;-81
2023/03/08 10:40:49;;;;;;;;;;;4.80;85.50;;;3.68;68.64;98328.78;5012455;28;19925;-82
2023/03/08 10:43:25;;;;;;;;;;;4.80;85.40;;;3.73;68.40;98321.81;5012149;28;19933;-81
2023/03/08 10:46:02;;;;;;;;;;;4.90;85.50;;;3.75;68.22;98313.69;5017221;28;19937;-82
2023/03/08 10:48:29;;;;;;;;;;;4.90;85.30;;;3.75;68.44;98314.47;5011478;28;20021;-81
2023/03/08 10:51:00;;;;;;;;;;;4.80;85.40;;;3.74;68.31;98307.59;5012786;28;20296;-80
2023/03/08 10:53:29;;;;;;;;;;;4.90;85.50;;;3.64;68.82;98311.78;5010523;28;19933;-81
2023/03/08 10:55:57;;;;;;;;;;;4.80;85.40;;;3.66;68.64;98317.63;5009093;28;20033;-82
2023/03/08 10:58:33;;;;;;;;;;;4.80;85.40;;;3.71;68.99;98313.34;5012558;28;20440;-87
2023/03/08 11:01:04;;;;;;;;;;;4.80;85.50;;;3.78;68.61;98313.25;5000224;28;19976;-80
2023/03/08 11:03:32;;;;;;;;;;;4.90;85.60;;;3.84;68.58;98315.00;5013114;28;20016;-82
2023/03/08 11:06:01;;;;;;;;;;;4.90;85.50;;;3.85;68.71;98308.69;4996343;28;19930;-80
2023/03/08 11:08:30;;;;;;;;;;;5.00;85.50;;;3.81;68.12;98318.91;5010683;28;20361;-80
2023/03/08 11:11:07;;;;;;;;;;;5.00;85.30;;;3.81;68.81;98324.16;5011261;28;20270;-79
2023/03/08 11:13:36;;;;;;;;;;;4.90;85.30;;;3.82;68.37;98319.69;5007846;28;20456;-80
2023/03/08 11:16:21;;;;;;;;;;;5.00;85.10;;;3.79;68.63;98317.50;5010891;28;20357;-80
2023/03/08 11:18:57;;;;;;;;;;;4.90;85.50;;;3.84;68.47;98313.16;5009876;28;20408;-79
2023/03/08 11:21:32;;;;;;;;;;;5.00;85.30;;;3.84;68.27;98315.81;5011650;28;19940;-80
2023/03/08 11:24:10;;;;;;;;;;;5.00;85.20;;;3.84;68.52;98312.38;5016619;28;20016;-80
2023/03/08 11:26:43;;;;;;;;;;;4.90;85.40;;;3.81;68.33;98312.81;5015352;28;20050;-79
2023/03/08 11:29:21;;;;;;;;;;;4.90;85.40;;;3.86;68.25;98299.78;5011004;28;19964;-79
2023/03/08 11:31:55;;;;;;;;;;;5.00;85.40;;;3.75;68.32;98308.41;5010249;28;19937;-80
2023/03/08 11:34:52;;;;;;;;;;;4.90;85.10;;;3.65;68.58;98306.28;5011884;28;20030;-80
2023/03/08 11:37:26;;;;;;;;;;;4.80;85.10;;;3.72;68.98;98308.88;5015813;28;19926;-80
2023/03/08 11:40:01;;;;;;;;;;;4.90;85.50;;;3.69;68.91;98301.38;5011656;28;20325;-80
2023/03/08 11:42:32;;;;;;;;;;;4.90;85.40;;;3.75;68.80;98303.94;5012975;28;19929;-80